»·PEaware :: UAL303 KGCN-KGJT

UAL303 :: KGCN-KGJT

FLIGHT INFORMATION

Flight Status: Arrived
Operator:
United Airlines
More flights by this operator :: More flights under this callsign
Pilot: Alex S. (7186)
Aircraft: BOEING 737-300
(B733)
More flights by this aircraft type
Origin: KGCN Grand Canyon Natl Park
United States
Destination: KGJT Walker
United States
More flights between these airports :: More routes between these airports
Route: TBC KD45Q JNC
File this flight plan on PilotEdge
Remarks: PBN / A1B3B4B5D3D4 DOF / 170930 REG / N38727 OPR / UAL RMK / TCAS SIMBRIEF
Altitude:
(Current/Filed)
27,000ft
Speed:
(Current/Filed)
438kts
Departed: 30-Sep-17 10:08 AM
Arrived: 30-Sep-17 11:18 AM
Distance/Time
Traveled:
257nm/1:10
Distance/Time
To Go:
Arrived

Flight Plot

Page will automatically refresh every two minutes.

Flight plan parsing failed; only flown route is shown


Map Options




Map Legend


Flown Route
Filed Route
Departure Airport
Arrival Airport
Navaid (VOR, NDB)
Fix

Horizontal Profiles

Position Reports

Time Latitude Longitude Heading Altitude Ground
Speed
30-Sep-17 09:42 35.959905 -112.136198 130 6607ft 0kts
30-Sep-17 09:43 35.959905 -112.136198 130 6607ft 0kts
30-Sep-17 09:44 35.959905 -112.136198 130 6607ft 0kts
30-Sep-17 09:45 35.959905 -112.136198 130 6607ft 0kts
30-Sep-17 09:46 35.959905 -112.136198 130 6607ft 0kts
30-Sep-17 09:47 35.959905 -112.136198 130 6607ft 0kts
30-Sep-17 09:48 35.959905 -112.136198 130 6607ft 0kts
30-Sep-17 09:49 35.959905 -112.136198 130 6607ft 0kts
30-Sep-17 09:50 35.959905 -112.136198 130 6607ft 0kts
30-Sep-17 09:51 35.959905 -112.136198 130 6607ft 0kts
30-Sep-17 09:52 35.959905 -112.136198 130 6607ft 0kts
30-Sep-17 09:53 35.959905 -112.136198 130 6607ft 0kts
30-Sep-17 09:54 35.959905 -112.136198 130 6607ft 0kts
30-Sep-17 09:55 35.959905 -112.136198 130 6607ft 0kts
30-Sep-17 09:56 35.959905 -112.136198 130 6607ft 0kts
30-Sep-17 09:57 35.959905 -112.136198 130 6607ft 0kts
30-Sep-17 09:58 35.959905 -112.136198 130 6607ft 0kts
30-Sep-17 09:59 35.959905 -112.136198 130 6607ft 0kts
30-Sep-17 10:00 35.959905 -112.136198 130 6607ft 0kts
30-Sep-17 10:01 35.959905 -112.136198 130 6607ft 0kts
30-Sep-17 10:02 35.959905 -112.136198 130 6607ft 0kts
30-Sep-17 10:03 35.959905 -112.136198 130 6607ft 0kts
30-Sep-17 10:04 35.959905 -112.136198 130 6607ft 0kts
30-Sep-17 10:05 35.959905 -112.136198 130 6607ft 0kts
30-Sep-17 10:06 35.959905 -112.136198 130 6607ft 0kts
30-Sep-17 10:07 35.960183 -112.136630 109 6607ft 0kts
30-Sep-17 10:08 35.960046 -112.137007 38 6607ft 0kts
30-Sep-17 10:09 35.960046 -112.137007 38 6607ft 0kts
30-Sep-17 10:10 35.960062 -112.136991 38 6607ft 0kts
30-Sep-17 10:11 35.961174 -112.136435 307 6607ft 7kts
30-Sep-17 10:12 35.955982 -112.143101 220 6607ft 98kts
30-Sep-17 10:13 35.925496 -112.176238 222 7523ft 159kts
30-Sep-17 10:14 35.912465 -112.228437 283 8969ft 187kts
30-Sep-17 10:15 35.930324 -112.302066 266 9684ft 250kts
30-Sep-17 10:16 35.905114 -112.392591 248 9974ft 318kts
30-Sep-17 10:17 35.879088 -112.491773 257 10081ft 293kts
30-Sep-17 10:18 35.932486 -112.563639 1 11028ft 369kts
30-Sep-17 10:19 35.987253 -112.472140 108 12821ft 376kts
30-Sep-17 10:20 35.946805 -112.354644 107 14628ft 388kts
30-Sep-17 10:21 35.974117 -112.224932 80 16182ft 408kts
30-Sep-17 10:22 35.995592 -112.085261 79 17781ft 421kts
30-Sep-17 10:23 36.018198 -111.941575 79 19266ft 433kts
30-Sep-17 10:24 36.041266 -111.793899 78 20661ft 444kts
30-Sep-17 10:25 36.063245 -111.652048 78 21872ft 453kts
30-Sep-17 10:26 36.086948 -111.497720 77 23067ft 462kts
30-Sep-17 10:27 36.110470 -111.344333 78 24131ft 470kts
30-Sep-17 10:28 36.177672 -111.217517 29 25036ft 452kts
30-Sep-17 10:29 36.280233 -111.126429 30 26063ft 457kts
30-Sep-17 10:30 36.383691 -111.032714 31 26770ft 468kts
30-Sep-17 10:31 36.487534 -110.938280 33 26872ft 461kts
30-Sep-17 10:32 36.590624 -110.844242 33 26875ft 461kts
30-Sep-17 10:33 36.693865 -110.749742 33 26874ft 461kts
30-Sep-17 10:34 36.796990 -110.655034 33 26874ft 461kts
30-Sep-17 10:35 36.899732 -110.560347 33 26874ft 461kts
30-Sep-17 10:36 37.002866 -110.464971 34 26885ft 462kts
30-Sep-17 10:37 37.105970 -110.369293 35 27254ft 470kts
30-Sep-17 10:38 37.210615 -110.272572 36 27326ft 471kts
30-Sep-17 10:39 37.315369 -110.174705 36 27308ft 469kts
30-Sep-17 10:40 37.419873 -110.076685 36 27314ft 470kts
30-Sep-17 10:41 37.524927 -109.980962 30 27318ft 468kts
30-Sep-17 10:42 37.634819 -109.898058 27 27285ft 457kts
30-Sep-17 10:43 37.743097 -109.815888 27 27275ft 456kts
30-Sep-17 10:44 37.851956 -109.732965 27 27284ft 459kts
30-Sep-17 10:45 37.961045 -109.649574 27 27299ft 460kts
30-Sep-17 10:46 38.069208 -109.566607 27 27301ft 461kts
30-Sep-17 10:47 38.174927 -109.485373 27 27253ft 459kts
30-Sep-17 10:48 38.281658 -109.402939 27 27178ft 455kts
30-Sep-17 10:49 38.387775 -109.320888 27 25703ft 458kts
30-Sep-17 10:50 38.483331 -109.246823 28 23650ft 445kts
30-Sep-17 10:51 38.567375 -109.181202 29 21794ft 433kts
30-Sep-17 10:52 38.666942 -109.103168 30 19537ft 422kts
30-Sep-17 10:53 38.779942 -109.014330 31 16881ft 404kts
30-Sep-17 10:54 38.843328 -108.963504 40 15324ft 393kts
30-Sep-17 10:55 38.863198 -108.841965 97 14182ft 361kts
30-Sep-17 10:56 38.878754 -108.715880 81 12989ft 360kts
30-Sep-17 10:57 38.895480 -108.600290 82 12327ft 304kts
30-Sep-17 10:58 38.909247 -108.504189 82 11946ft 264kts
30-Sep-17 10:59 38.921905 -108.414246 80 11959ft 265kts
30-Sep-17 11:00 38.960085 -108.347996 40 10372ft 280kts
30-Sep-17 11:01 39.015479 -108.353346 304 9178ft 207kts
30-Sep-17 11:02 39.048009 -108.405253 306 7533ft 186kts
30-Sep-17 11:03 39.075541 -108.447811 307 6190ft 164kts
30-Sep-17 11:04 39.104964 -108.493017 309 5382ft 186kts
30-Sep-17 11:05 39.134524 -108.541216 301 7011ft 190kts
30-Sep-17 11:06 39.169015 -108.601576 303 7759ft 250kts
30-Sep-17 11:07 39.208122 -108.674264 301 9356ft 274kts
30-Sep-17 11:08 39.250556 -108.753227 300 9971ft 272kts
30-Sep-17 11:09 39.287663 -108.823442 300 9952ft 271kts
30-Sep-17 11:10 39.326816 -108.896907 300 9922ft 297kts
30-Sep-17 11:11 39.370750 -108.984560 280 9946ft 292kts
30-Sep-17 11:12 39.325750 -109.036291 154 9954ft 279kts
30-Sep-17 11:13 39.308991 -108.947421 89 9974ft 264kts
30-Sep-17 11:14 39.309934 -108.864374 112 9801ft 222kts
30-Sep-17 11:15 39.278389 -108.802117 133 8443ft 204kts
30-Sep-17 11:16 39.248067 -108.751752 129 8216ft 173kts
30-Sep-17 11:17 39.224814 -108.708473 129 7969ft 149kts
30-Sep-17 11:18 39.201956 -108.666818 129 7112ft 145kts
30-Sep-17 11:19 39.180003 -108.626669 128 6361ft 143kts
30-Sep-17 11:20 39.158745 -108.587818 127 5641ft 141kts
30-Sep-17 11:21 39.136524 -108.547074 127 4901ft 139kts
30-Sep-17 11:22 39.124878 -108.525989 124 4806ft 18kts
30-Sep-17 11:23 39.123200 -108.525718 214 4806ft 6kts
30-Sep-17 11:24 39.123366 -108.528958 252 4806ft 0kts
30-Sep-17 11:25 39.123366 -108.528958 252 4806ft 0kts

Navigation Log

Ident Type
Flight plan parsing failed, navigation log unavailable